createdAt,value
2023-05-22T00:01:06.756Z,101794.56
2023-05-22T00:03:33.932Z,101804.69
2023-05-22T00:06:00.734Z,101786.06
2023-05-22T00:08:29.640Z,101795.38
2023-05-22T00:10:56.750Z,101799.31
2023-05-22T00:13:23.537Z,101793.72
2023-05-22T00:15:50.393Z,101798.97
2023-05-22T00:18:17.365Z,101795.72
2023-05-22T00:20:46.725Z,101797.06
2023-05-22T00:23:15.696Z,101794.50
2023-05-22T00:25:43.195Z,101803.72
2023-05-22T00:28:12.044Z,101803.81
2023-05-22T00:30:38.979Z,101788.75
2023-05-22T00:33:06.348Z,101795.81
2023-05-22T00:35:33.743Z,101788.66
2023-05-22T00:38:04.019Z,101785.22
2023-05-22T00:40:31.032Z,101764.13
2023-05-22T00:42:57.876Z,101785.63
2023-05-22T00:45:24.682Z,101766.28
2023-05-22T00:47:52.300Z,101781.78
2023-05-22T00:50:19.437Z,101779.38
2023-05-22T00:52:47.538Z,101776.81
2023-05-22T00:55:15.257Z,101770.59
2023-05-22T00:57:42.300Z,101765.41
2023-05-22T01:00:13.836Z,101760.41
2023-05-22T01:02:43.337Z,101758.78
2023-05-22T01:05:13.299Z,101760.28
2023-05-22T01:07:40.648Z,101743.66
2023-05-22T01:10:08.174Z,101762.13
2023-05-22T01:12:57.421Z,101752.59
2023-05-22T01:15:35.578Z,101749.72
2023-05-22T01:18:19.974Z,101751.78
2023-05-22T01:21:10.411Z,101756.69
2023-05-22T01:23:40.339Z,101754.94
2023-05-22T01:26:12.921Z,101749.44
2023-05-22T01:28:56.089Z,101752.00
2023-05-22T01:31:31.600Z,101749.75
2023-05-22T01:34:01.130Z,101745.53
2023-05-22T01:36:31.430Z,101748.28
2023-05-22T01:39:01.698Z,101742.91
2023-05-22T01:41:29.981Z,101730.66
2023-05-22T01:43:56.945Z,101744.41
2023-05-22T01:46:30.420Z,101744.22
2023-05-22T01:48:58.007Z,101737.41
2023-05-22T01:51:36.855Z,101734.81
2023-05-22T01:54:24.486Z,101733.59
2023-05-22T01:57:07.714Z,101723.00
2023-05-22T01:59:45.543Z,101736.84
2023-05-22T02:02:17.951Z,101735.25
2023-05-22T02:04:56.070Z,101731.72
2023-05-22T02:07:25.142Z,101727.50
2023-05-22T02:09:54.040Z,101724.81
2023-05-22T02:12:22.004Z,101731.69
2023-05-22T02:14:49.488Z,101726.56
2023-05-22T02:17:18.222Z,101719.91
2023-05-22T02:19:45.311Z,101712.25
2023-05-22T02:22:14.898Z,101714.88
2023-05-22T02:24:47.776Z,101706.00
2023-05-22T02:27:14.532Z,101708.75
2023-05-22T02:29:41.357Z,101707.25
2023-05-22T02:32:08.696Z,101703.22
2023-05-22T02:34:35.431Z,101706.13
2023-05-22T02:37:05.401Z,101716.31
2023-05-22T02:39:32.104Z,101706.03
2023-05-22T02:41:58.863Z,101713.75
2023-05-22T02:44:25.663Z,101713.25
2023-05-22T02:46:52.495Z,101707.94
2023-05-22T02:49:19.288Z,101708.59
2023-05-22T02:51:47.942Z,101705.16
2023-05-22T02:54:16.065Z,101708.50
2023-05-22T02:56:43.715Z,101697.91
2023-05-22T02:59:10.607Z,101709.38
2023-05-22T03:01:38.842Z,101703.31
2023-05-22T03:04:06.750Z,101694.38
2023-05-22T03:06:35.416Z,101691.00
2023-05-22T03:09:04.802Z,101686.09
2023-05-22T03:11:32.256Z,101682.84
2023-05-22T03:13:58.985Z,101690.69
2023-05-22T03:16:26.781Z,101683.97
2023-05-22T03:19:17.018Z,101680.28
2023-05-22T03:21:48.499Z,101693.50
2023-05-22T03:24:15.187Z,101683.28
2023-05-22T03:26:42.097Z,101686.59
2023-05-22T03:29:08.826Z,101689.22
2023-05-22T03:31:36.098Z,101689.63
2023-05-22T03:34:03.767Z,101678.56
2023-05-22T03:36:34.007Z,101682.72
2023-05-22T03:39:00.968Z,101687.41
2023-05-22T03:41:27.732Z,101690.88
2023-05-22T03:43:54.421Z,101683.56
2023-05-22T03:46:21.437Z,101689.88
2023-05-22T03:48:48.350Z,101690.91
2023-05-22T03:51:15.082Z,101689.47
2023-05-22T03:53:41.838Z,101697.97
2023-05-22T03:56:08.583Z,101686.47
2023-05-22T03:58:35.328Z,101700.31
2023-05-22T04:01:02.103Z,101716.97
2023-05-22T04:03:29.027Z,101706.75
2023-05-22T04:05:57.053Z,101703.41
2023-05-22T04:08:23.842Z,101705.53
2023-05-22T04:10:50.555Z,101708.09
2023-05-22T04:13:17.539Z,101714.56
2023-05-22T04:15:46.907Z,101720.31
2023-05-22T04:18:14.252Z,101725.44
2023-05-22T04:20:41.156Z,101722.16
2023-05-22T04:23:08.103Z,101717.03
2023-05-22T04:25:34.845Z,101722.81
2023-05-22T04:28:04.391Z,101732.44
2023-05-22T04:30:34.229Z,101715.91
2023-05-22T04:33:01.847Z,101719.22
2023-05-22T04:35:29.723Z,101719.19
2023-05-22T04:37:57.494Z,101715.41
2023-05-22T04:40:24.213Z,101720.50
2023-05-22T04:42:54.380Z,101726.66
2023-05-22T04:45:25.418Z,101720.31
2023-05-22T04:47:53.313Z,101732.94
2023-05-22T04:50:20.724Z,101735.66
2023-05-22T04:52:48.128Z,101739.47
2023-05-22T04:55:14.894Z,101745.38
2023-05-22T04:57:44.731Z,101745.38
2023-05-22T05:00:13.945Z,101739.84
2023-05-22T05:02:41.462Z,101737.94
2023-05-22T05:05:08.771Z,101743.16
2023-05-22T05:07:43.610Z,101737.69
2023-05-22T05:10:10.619Z,101748.78
2023-05-22T05:12:37.439Z,101750.47
2023-05-22T05:15:04.807Z,101741.19
2023-05-22T05:17:31.651Z,101746.28
2023-05-22T05:19:58.324Z,101748.88
2023-05-22T05:22:25.570Z,101743.75
2023-05-22T05:24:52.313Z,101741.84
2023-05-22T05:27:19.182Z,101744.84
2023-05-22T05:29:46.805Z,101745.03
2023-05-22T05:32:14.067Z,101747.03
2023-05-22T05:34:41.561Z,101761.75
2023-05-22T05:37:09.113Z,101764.59
2023-05-22T05:39:35.957Z,101764.38
2023-05-22T05:42:02.654Z,101768.94
2023-05-22T05:44:29.384Z,101771.59
2023-05-22T05:46:56.057Z,101768.78
2023-05-22T05:49:22.767Z,101766.47
2023-05-22T05:51:49.491Z,101772.72
2023-05-22T05:54:16.170Z,101776.81
2023-05-22T05:56:43.040Z,101779.13
2023-05-22T05:59:10.096Z,101780.09
2023-05-22T06:01:38.796Z,101771.31
2023-05-22T06:04:05.872Z,101777.56
2023-05-22T06:06:36.568Z,101776.66
2023-05-22T06:09:07.362Z,101782.94
2023-05-22T06:11:34.195Z,101782.69
2023-05-22T06:14:08.417Z,101792.19
2023-05-22T06:16:35.189Z,101790.47
2023-05-22T06:19:02.169Z,101798.28
2023-05-22T06:21:29.112Z,101795.44
2023-05-22T06:23:55.792Z,101795.06
2023-05-22T06:26:23.654Z,101798.00
2023-05-22T06:28:51.920Z,101796.47
2023-05-22T06:31:18.920Z,101769.81
2023-05-22T06:33:45.821Z,101802.97
2023-05-22T06:36:12.714Z,101792.88
2023-05-22T06:38:39.465Z,101800.75
2023-05-22T06:41:06.542Z,101802.28
2023-05-22T06:43:33.548Z,101803.91
2023-05-22T06:46:00.484Z,101803.91
2023-05-22T06:48:27.244Z,101798.59
2023-05-22T06:50:53.962Z,101804.19
2023-05-22T06:53:20.617Z,101790.28
2023-05-22T06:55:47.400Z,101793.53
2023-05-22T06:58:14.107Z,101781.06
2023-05-22T07:00:40.986Z,101783.25
2023-05-22T07:03:07.824Z,101779.88
2023-05-22T07:05:34.780Z,101786.72
2023-05-22T07:08:01.684Z,101785.56
2023-05-22T07:10:28.598Z,101780.09
2023-05-22T07:12:55.393Z,101793.44
2023-05-22T07:15:22.085Z,101780.91
2023-05-22T07:17:49.398Z,101781.66
2023-05-22T07:20:16.953Z,101783.84
2023-05-22T07:22:43.768Z,101788.34
2023-05-22T07:25:10.678Z,101792.72
2023-05-22T07:27:37.474Z,101798.13
2023-05-22T07:30:04.538Z,101795.81
2023-05-22T07:32:31.405Z,101807.00
2023-05-22T07:34:58.156Z,101804.66
2023-05-22T07:37:25.107Z,101818.00
2023-05-22T07:39:51.800Z,101817.94
2023-05-22T07:42:18.799Z,101823.34
2023-05-22T07:44:45.509Z,101827.81
2023-05-22T07:47:12.160Z,101812.25
2023-05-22T07:49:38.859Z,101834.47
2023-05-22T07:52:05.964Z,101835.31
2023-05-22T07:54:32.649Z,101817.59
2023-05-22T07:57:03.325Z,101832.31
2023-05-22T07:59:29.997Z,101832.50
2023-05-22T08:01:58.367Z,101834.63
2023-05-22T08:04:26.253Z,101827.16
2023-05-22T08:06:53.151Z,101835.94
2023-05-22T08:09:21.326Z,101840.56
2023-05-22T08:11:48.185Z,101836.94
2023-05-22T08:14:15.021Z,101850.94
2023-05-22T08:16:41.798Z,101847.69
2023-05-22T08:19:09.130Z,101846.41
2023-05-22T08:21:37.741Z,101850.19
2023-05-22T08:24:04.700Z,101850.28
2023-05-22T08:26:33.407Z,101843.91
2023-05-22T08:29:00.730Z,101857.94
2023-05-22T08:31:29.340Z,101852.63
2023-05-22T08:34:02.773Z,101865.53
2023-05-22T08:36:34.214Z,101876.47
2023-05-22T08:39:01.617Z,101860.59
2023-05-22T08:41:29.416Z,101860.56
2023-05-22T08:43:56.147Z,101867.56
2023-05-22T08:46:26.571Z,101881.50
2023-05-22T08:48:57.134Z,101876.25
2023-05-22T08:51:29.329Z,101879.13
2023-05-22T08:53:57.476Z,101863.22
2023-05-22T08:56:25.528Z,101880.09
2023-05-22T08:58:54.413Z,101884.38
2023-05-22T09:01:21.788Z,101889.34
2023-05-22T09:03:51.430Z,101882.69
2023-05-22T09:06:18.687Z,101873.84
2023-05-22T09:08:46.186Z,101885.97
2023-05-22T09:11:13.360Z,101883.63
2023-05-22T09:13:41.341Z,101872.94
2023-05-22T09:16:13.463Z,101888.53
2023-05-22T09:18:42.216Z,101881.75
2023-05-22T09:21:21.710Z,101887.47
2023-05-22T09:23:59.203Z,101878.72
2023-05-22T09:26:29.456Z,101882.56
2023-05-22T09:28:57.316Z,101874.25
2023-05-22T09:31:24.129Z,101856.28
2023-05-22T09:33:51.016Z,101882.50
2023-05-22T09:36:17.993Z,101872.88
2023-05-22T09:38:45.209Z,101883.78
2023-05-22T09:41:11.958Z,101885.50
2023-05-22T09:43:38.764Z,101882.97
2023-05-22T09:46:05.585Z,101883.88
2023-05-22T09:48:36.746Z,101868.03
2023-05-22T09:51:04.341Z,101866.41
2023-05-22T09:53:33.753Z,101877.59
2023-05-22T09:56:02.172Z,101881.63
2023-05-22T09:58:31.299Z,101870.66
2023-05-22T10:00:59.379Z,101869.88
2023-05-22T10:03:27.649Z,101855.34
2023-05-22T10:05:58.827Z,101858.25
2023-05-22T10:08:28.862Z,101858.75
2023-05-22T10:10:56.234Z,101846.31
2023-05-22T10:13:25.359Z,101848.53
2023-05-22T10:15:53.355Z,101847.06
2023-05-22T10:18:20.401Z,101844.78
2023-05-22T10:20:49.030Z,101844.16
2023-05-22T10:23:18.721Z,101860.97
2023-05-22T10:25:45.996Z,101849.88
2023-05-22T10:28:19.562Z,101833.19
2023-05-22T10:31:10.053Z,101834.53
2023-05-22T10:33:45.103Z,101837.25
2023-05-22T10:36:24.578Z,101853.78
2023-05-22T10:39:27.220Z,101841.81
2023-05-22T10:41:54.196Z,101840.00
2023-05-22T10:44:22.380Z,101827.75
2023-05-22T10:46:53.013Z,101821.72
2023-05-22T10:49:23.967Z,101843.72
2023-05-22T10:51:57.133Z,101845.03
2023-05-22T10:54:43.035Z,101849.47
2023-05-22T10:57:12.260Z,101850.53
2023-05-22T10:59:38.978Z,101849.97
2023-05-22T11:02:07.736Z,101851.66
2023-05-22T11:04:36.306Z,101842.53
2023-05-22T11:07:05.182Z,101842.81
2023-05-22T11:09:45.837Z,101857.19
2023-05-22T11:12:28.459Z,101859.34
2023-05-22T11:14:59.121Z,101850.13
2023-05-22T11:17:29.939Z,101851.84
2023-05-22T11:20:06.203Z,101858.03
2023-05-22T11:22:36.032Z,101863.97
2023-05-22T11:25:11.348Z,101863.72
2023-05-22T11:27:40.716Z,101868.63
2023-05-22T11:30:09.600Z,101844.34
2023-05-22T11:32:37.837Z,101842.81
2023-05-22T11:35:10.944Z,101840.63
2023-05-22T11:37:40.980Z,101851.16
2023-05-22T11:40:08.859Z,101843.06
2023-05-22T11:42:36.307Z,101850.63
2023-05-22T11:45:04.159Z,101857.59
2023-05-22T11:47:31.858Z,101860.56
2023-05-22T11:50:00.034Z,101861.84
2023-05-22T11:52:31.659Z,101853.75
2023-05-22T11:54:58.386Z,101863.41
2023-05-22T11:57:25.256Z,101864.03
2023-05-22T11:59:51.918Z,101854.13
2023-05-22T12:02:19.653Z,101850.34
2023-05-22T12:04:46.739Z,101860.22
2023-05-22T12:07:13.502Z,101848.28
2023-05-22T12:09:40.845Z,101856.19
2023-05-22T12:12:11.552Z,101825.88
2023-05-22T12:14:38.471Z,101844.59
2023-05-22T12:17:05.349Z,101849.38
2023-05-22T12:19:32.642Z,101843.91
2023-05-22T12:21:59.651Z,101850.69
2023-05-22T12:24:26.542Z,101871.72
2023-05-22T12:26:56.817Z,101867.66
2023-05-22T12:29:23.797Z,101873.13
2023-05-22T12:31:51.036Z,101873.09
2023-05-22T12:34:21.473Z,101876.47
2023-05-22T12:36:48.430Z,101876.72
2023-05-22T12:39:19.072Z,101881.38
2023-05-22T12:41:46.541Z,101868.78
2023-05-22T12:44:16.481Z,101876.38
2023-05-22T12:46:43.656Z,101860.69
2023-05-22T12:49:11.018Z,101865.28
2023-05-22T12:51:37.745Z,101865.06
2023-05-22T12:54:04.853Z,101867.78
2023-05-22T12:56:31.933Z,101869.91
2023-05-22T12:58:58.881Z,101864.03
2023-05-22T13:01:26.358Z,101869.91
2023-05-22T13:03:53.340Z,101852.19
2023-05-22T13:06:20.631Z,101855.19
2023-05-22T13:08:47.439Z,101857.84
2023-05-22T13:11:14.188Z,101839.84
2023-05-22T13:13:41.094Z,101857.41
2023-05-22T13:16:09.127Z,101845.38
2023-05-22T13:18:35.919Z,101848.59
2023-05-22T13:21:02.694Z,101850.31
2023-05-22T13:23:29.333Z,101843.63
2023-05-22T13:25:56.050Z,101843.09
2023-05-22T13:28:22.786Z,101834.22
2023-05-22T13:30:49.453Z,101837.66
2023-05-22T13:33:16.489Z,101834.75
2023-05-22T13:35:43.176Z,101851.44
2023-05-22T13:38:09.878Z,101839.84
2023-05-22T13:40:37.052Z,101840.78
2023-05-22T13:43:03.751Z,101830.03
2023-05-22T13:45:31.286Z,101834.31
2023-05-22T13:47:58.014Z,101835.38
2023-05-22T13:50:24.737Z,101833.13
2023-05-22T13:52:51.457Z,101825.56
2023-05-22T13:55:18.170Z,101821.00
2023-05-22T13:57:44.866Z,101837.16
2023-05-22T14:00:12.872Z,101819.03
2023-05-22T14:02:39.653Z,101835.50
2023-05-22T14:05:06.877Z,101823.13
2023-05-22T14:07:33.628Z,101818.44
2023-05-22T14:10:01.533Z,101811.28
2023-05-22T14:12:28.644Z,101812.47
2023-05-22T14:14:55.404Z,101824.75
2023-05-22T14:17:22.201Z,101802.53
2023-05-22T14:19:48.930Z,101823.06
2023-05-22T14:22:15.651Z,101829.88
2023-05-22T14:24:42.824Z,101832.81
2023-05-22T14:27:10.171Z,101816.59
2023-05-22T14:29:37.033Z,101833.75
2023-05-22T14:32:05.476Z,101836.19
2023-05-22T14:34:32.748Z,101836.81
2023-05-22T14:36:59.513Z,101832.06
2023-05-22T14:39:26.304Z,101835.88
2023-05-22T14:41:53.922Z,101836.66
2023-05-22T14:44:22.599Z,101837.44
2023-05-22T14:46:51.238Z,101843.44
2023-05-22T14:49:18.399Z,101852.16
2023-05-22T14:51:48.390Z,101825.34
2023-05-22T14:54:19.299Z,101851.59
2023-05-22T14:56:46.596Z,101835.34
2023-05-22T14:59:14.355Z,101843.72
2023-05-22T15:01:41.507Z,101842.16
2023-05-22T15:04:09.042Z,101835.00
2023-05-22T15:06:36.306Z,101842.53
2023-05-22T15:09:03.496Z,101843.22
2023-05-22T15:11:30.379Z,101844.22
2023-05-22T15:13:57.220Z,101833.53
2023-05-22T15:16:26.014Z,101850.44
2023-05-22T15:18:52.917Z,101857.28
2023-05-22T15:21:19.769Z,101853.22
2023-05-22T15:23:47.312Z,101856.63
2023-05-22T15:26:13.989Z,101853.63
2023-05-22T15:28:41.017Z,101863.31
2023-05-22T15:31:07.726Z,101866.16
2023-05-22T15:33:34.472Z,101873.44
2023-05-22T15:36:01.309Z,101870.22
2023-05-22T15:38:31.245Z,101879.00
2023-05-22T15:40:59.204Z,101882.22
2023-05-22T15:43:28.075Z,101888.78
2023-05-22T15:45:57.042Z,101879.59
2023-05-22T15:48:25.412Z,101889.81
2023-05-22T15:50:53.380Z,101891.13
2023-05-22T15:53:22.124Z,101890.03
2023-05-22T15:55:51.224Z,101891.34
2023-05-22T15:58:18.229Z,101886.22
2023-05-22T16:00:45.434Z,101899.09
2023-05-22T16:03:13.093Z,101913.63
2023-05-22T16:05:41.507Z,101916.16
2023-05-22T16:08:11.975Z,101912.47
2023-05-22T16:10:41.633Z,101916.31
2023-05-22T16:13:10.692Z,101930.41
2023-05-22T16:15:39.813Z,101915.22
2023-05-22T16:18:07.618Z,101914.28
2023-05-22T16:20:35.552Z,101922.75
2023-05-22T16:23:02.481Z,101918.13
2023-05-22T16:25:29.162Z,101923.56
2023-05-22T16:27:56.560Z,101915.66
2023-05-22T16:30:23.250Z,101914.50
2023-05-22T16:32:50.029Z,101927.03
2023-05-22T16:35:16.923Z,101914.34
2023-05-22T16:37:43.643Z,101920.88
2023-05-22T16:40:11.027Z,101917.22
2023-05-22T16:42:43.034Z,101915.16
2023-05-22T16:45:09.798Z,101909.00
2023-05-22T16:47:36.521Z,101915.31
2023-05-22T16:50:03.553Z,101904.72
2023-05-22T16:52:30.793Z,101913.16
2023-05-22T16:54:57.807Z,101905.88
2023-05-22T16:57:27.562Z,101898.03
2023-05-22T16:59:56.420Z,101909.97
2023-05-22T17:02:24.573Z,101892.25
2023-05-22T17:04:51.363Z,101900.81
2023-05-22T17:07:18.232Z,101902.84
2023-05-22T17:09:44.952Z,101898.16
2023-05-22T17:12:11.650Z,101908.19
2023-05-22T17:14:38.408Z,101906.66
2023-05-22T17:17:05.312Z,101899.69
2023-05-22T17:19:32.514Z,101903.38
2023-05-22T17:21:59.350Z,101899.50
2023-05-22T17:24:27.860Z,101898.84
2023-05-22T17:26:54.614Z,101889.78
2023-05-22T17:29:21.300Z,101897.06
2023-05-22T17:31:48.197Z,101883.66
2023-05-22T17:34:14.962Z,101907.78
2023-05-22T17:36:43.298Z,101890.78
2023-05-22T17:39:11.551Z,101898.75
2023-05-22T17:41:38.361Z,101903.56
2023-05-22T17:44:05.081Z,101896.56
2023-05-22T17:46:32.136Z,101903.50
2023-05-22T17:48:58.971Z,101895.00
2023-05-22T17:51:25.732Z,101897.72
2023-05-22T17:53:56.111Z,101908.47
2023-05-22T17:56:23.618Z,101901.34
2023-05-22T17:58:50.904Z,101908.34
2023-05-22T18:01:18.663Z,101916.44
2023-05-22T18:03:46.289Z,101907.69
2023-05-22T18:06:13.389Z,101926.56
2023-05-22T18:08:40.766Z,101922.88
2023-05-22T18:11:07.469Z,101920.75
2023-05-22T18:13:34.216Z,101917.78
2023-05-22T18:16:02.367Z,101914.63
2023-05-22T18:18:29.059Z,101929.03
2023-05-22T18:20:58.624Z,101933.34
2023-05-22T18:23:25.480Z,101924.19
2023-05-22T18:25:52.373Z,101922.72
2023-05-22T18:28:20.929Z,101935.44
2023-05-22T18:30:49.684Z,101938.34
2023-05-22T18:33:16.668Z,101930.97
2023-05-22T18:35:43.732Z,101948.41
2023-05-22T18:38:10.513Z,101940.50
2023-05-22T18:40:37.237Z,101942.50
2023-05-22T18:43:03.971Z,101942.19
2023-05-22T18:45:30.651Z,101940.91
2023-05-22T18:47:57.326Z,101935.19
2023-05-22T18:50:24.160Z,101957.50
2023-05-22T18:52:50.927Z,101970.28
2023-05-22T18:55:17.619Z,101951.97
2023-05-22T18:57:44.345Z,101954.03
2023-05-22T19:00:11.326Z,101970.28
2023-05-22T19:02:38.030Z,101962.25
2023-05-22T19:05:05.254Z,101972.06
2023-05-22T19:07:32.033Z,101961.78
2023-05-22T19:09:59.242Z,101973.47
2023-05-22T19:12:28.422Z,101968.94
2023-05-22T19:14:55.065Z,101974.78
2023-05-22T19:17:21.820Z,101959.47
2023-05-22T19:19:48.542Z,101975.16
2023-05-22T19:22:17.830Z,101975.09
2023-05-22T19:24:45.008Z,101971.47
2023-05-22T19:27:11.721Z,101977.53
2023-05-22T19:29:38.433Z,101981.13
2023-05-22T19:32:05.595Z,101989.81
2023-05-22T19:34:32.343Z,101993.66
2023-05-22T19:36:59.059Z,101985.59
2023-05-22T19:39:25.944Z,101985.84
2023-05-22T19:41:52.991Z,101996.75
2023-05-22T19:44:19.650Z,101997.28
2023-05-22T19:46:46.676Z,102007.78
2023-05-22T19:49:13.659Z,101974.13
2023-05-22T19:51:40.953Z,102010.69
2023-05-22T19:54:07.714Z,101995.88
2023-05-22T19:56:35.765Z,102015.69
2023-05-22T19:59:02.460Z,102014.28
2023-05-22T20:01:29.179Z,102018.78
2023-05-22T20:03:56.310Z,102017.13
2023-05-22T20:06:23.171Z,102021.56
2023-05-22T20:08:49.832Z,102011.28
2023-05-22T20:11:16.551Z,102023.53
2023-05-22T20:13:43.208Z,102036.56
2023-05-22T20:16:12.754Z,102042.00
2023-05-22T20:18:41.179Z,102041.81
2023-05-22T20:21:08.178Z,102043.25
2023-05-22T20:23:34.941Z,102047.31
2023-05-22T20:26:01.654Z,102052.63
2023-05-22T20:28:28.533Z,102055.94
2023-05-22T20:30:55.193Z,102047.66
2023-05-22T20:33:22.055Z,102053.75
2023-05-22T20:35:52.875Z,102023.94
2023-05-22T20:38:20.066Z,102056.09
2023-05-22T20:40:47.905Z,102036.59
2023-05-22T20:43:15.143Z,102055.78
2023-05-22T20:45:45.978Z,102059.34
2023-05-22T20:48:13.852Z,102051.09
2023-05-22T20:50:42.305Z,102065.78
2023-05-22T20:53:09.098Z,102071.31
2023-05-22T20:55:35.870Z,102064.50
2023-05-22T20:58:02.597Z,102064.78
2023-05-22T21:00:30.076Z,102075.03
2023-05-22T21:02:58.341Z,102080.44
2023-05-22T21:05:26.350Z,102060.69
2023-05-22T21:07:53.148Z,102074.13
2023-05-22T21:10:19.885Z,102081.53
2023-05-22T21:12:46.622Z,102078.22
2023-05-22T21:15:13.316Z,102067.00
2023-05-22T21:17:40.287Z,102069.75
2023-05-22T21:20:08.153Z,102082.16
2023-05-22T21:22:34.860Z,102080.94
2023-05-22T21:25:01.598Z,102083.63
2023-05-22T21:27:28.305Z,102085.94
2023-05-22T21:29:54.970Z,102088.56
2023-05-22T21:32:21.668Z,102087.81
2023-05-22T21:34:48.328Z,102102.59
2023-05-22T21:37:15.017Z,102084.50
2023-05-22T21:39:41.780Z,102084.88
2023-05-22T21:42:08.878Z,102090.72
2023-05-22T21:44:36.011Z,102091.50
2023-05-22T21:47:02.833Z,102081.31
2023-05-22T21:49:29.509Z,102085.13
2023-05-22T21:51:56.180Z,102079.91
2023-05-22T21:54:22.933Z,102089.38
2023-05-22T21:56:49.644Z,102055.72
2023-05-22T21:59:16.380Z,102093.19
2023-05-22T22:01:43.205Z,102086.94
2023-05-22T22:04:09.995Z,102095.41
2023-05-22T22:06:37.050Z,102105.06
2023-05-22T22:09:03.990Z,102107.88
2023-05-22T22:11:30.787Z,102108.06
2023-05-22T22:13:57.510Z,102105.44
2023-05-22T22:16:24.536Z,102100.03
2023-05-22T22:18:51.529Z,102104.75
2023-05-22T22:21:18.311Z,102102.31
2023-05-22T22:23:45.033Z,102094.69
2023-05-22T22:26:14.514Z,102093.13
2023-05-22T22:28:41.186Z,102101.88
2023-05-22T22:31:07.876Z,102099.28
2023-05-22T22:33:34.674Z,102105.28
2023-05-22T22:36:01.922Z,102109.06
2023-05-22T22:38:28.940Z,102109.88
2023-05-22T22:40:55.728Z,102107.56
2023-05-22T22:43:22.393Z,102112.94
2023-05-22T22:45:49.102Z,102108.56
2023-05-22T22:48:16.706Z,102103.28
2023-05-22T22:50:44.139Z,102104.28
2023-05-22T22:53:12.482Z,102111.00
2023-05-22T22:55:39.596Z,102108.25
2023-05-22T22:58:07.910Z,102109.06
2023-05-22T23:00:34.584Z,102104.66
2023-05-22T23:03:01.320Z,102108.28
2023-05-22T23:05:28.280Z,102108.41
2023-05-22T23:07:56.079Z,102106.72
2023-05-22T23:10:22.851Z,102091.16
2023-05-22T23:12:50.279Z,102092.94
2023-05-22T23:15:17.220Z,102091.47
2023-05-22T23:17:43.944Z,102092.56
2023-05-22T23:20:11.062Z,102087.44
2023-05-22T23:22:37.847Z,102090.78
2023-05-22T23:25:04.889Z,102104.75
2023-05-22T23:27:31.806Z,102096.00
2023-05-22T23:29:58.533Z,102096.88
2023-05-22T23:32:25.298Z,102103.13
2023-05-22T23:34:52.131Z,102103.03
2023-05-22T23:37:18.854Z,102104.81
2023-05-22T23:39:45.554Z,102078.84
2023-05-22T23:42:12.278Z,102113.34
2023-05-22T23:44:39.040Z,102109.13
2023-05-22T23:47:06.706Z,102105.44
2023-05-22T23:49:33.668Z,102103.84
2023-05-22T23:52:00.429Z,102111.72
2023-05-22T23:54:27.112Z,102110.00
2023-05-22T23:56:53.803Z,102095.41
2023-05-22T23:59:22.001Z,102110.19
